Time;durP1;ratioP1;P1;durP2;ratioP2;P2;SDS_P1;SDS_P2;PMS_P1;PMS_P2;Temp;Humidity;BMP_temperature;BMP_pressure;BME280_temperature;BME280_humidity;BME280_pressure;Samples;Min_cycle;Max_cycle;Signal;HPM_P1;HPM_P2
2023/01/12 00:02:21;;;;;;;4.88;1.70;;;25.50;99.90;;;;;;5059695;28;20207;-85
2023/01/12 00:04:52;;;;;;;5.28;1.77;;;25.40;99.90;;;;;;5062762;28;20742;-85
2023/01/12 00:07:23;;;;;;;7.07;2.03;;;25.50;99.90;;;;;;5058915;28;20200;-85
2023/01/12 00:09:55;;;;;;;5.30;1.60;;;25.50;99.90;;;;;;5061497;28;20231;-86
2023/01/12 00:12:26;;;;;;;5.85;1.80;;;25.50;99.90;;;;;;5055851;28;20686;-86
2023/01/12 00:14:59;;;;;;;6.55;2.00;;;25.60;99.90;;;;;;5061815;28;20196;-85
2023/01/12 00:17:33;;;;;;;5.93;1.73;;;25.50;99.90;;;;;;5057874;28;20184;-88
2023/01/12 00:20:05;;;;;;;7.15;2.03;;;25.40;99.90;;;;;;5058259;28;20222;-88
2023/01/12 00:22:36;;;;;;;7.18;1.90;;;25.50;99.90;;;;;;5061409;28;20223;-87
2023/01/12 00:25:07;;;;;;;5.55;1.65;;;25.60;99.90;;;;;;5058238;28;20231;-86
2023/01/12 00:27:39;;;;;;;3.92;1.67;;;25.50;99.90;;;;;;5060444;28;20191;-86
2023/01/12 00:30:13;;;;;;;4.47;1.60;;;25.50;99.90;;;;;;5060944;28;20542;-87
2023/01/12 00:32:43;;;;;;;5.50;1.88;;;25.50;99.90;;;;;;5058465;28;20222;-88
2023/01/12 00:35:16;;;;;;;8.07;2.20;;;25.60;99.90;;;;;;5060954;28;20217;-85
2023/01/12 00:37:50;;;;;;;5.15;1.75;;;25.50;99.90;;;;;;5057403;28;20195;-86
2023/01/12 00:40:21;;;;;;;5.50;1.90;;;25.40;99.90;;;;;;5064238;28;20200;-86
2023/01/12 00:45:41;;;;;;;3.20;1.40;;;25.40;99.90;;;;;;5060207;28;20273;-91
2023/01/12 00:48:14;;;;;;;4.53;1.30;;;25.40;99.90;;;;;;5065634;28;20222;-88
2023/01/12 00:50:45;;;;;;;6.30;1.80;;;25.40;99.90;;;;;;5063804;28;20183;-87
2023/01/12 00:53:16;;;;;;;5.85;1.52;;;25.50;99.90;;;;;;5061876;28;20212;-91
2023/01/12 00:55:50;;;;;;;5.78;1.50;;;25.50;99.90;;;;;;5071169;28;20215;-88
2023/01/12 00:58:21;;;;;;;5.97;1.70;;;25.50;99.90;;;;;;5079439;28;20311;-88
2023/01/12 01:00:54;;;;;;;5.82;1.80;;;25.50;99.90;;;;;;5070583;28;20196;-89
2023/01/12 01:03:25;;;;;;;3.92;1.40;;;25.50;99.90;;;;;;5061753;28;20247;-88
2023/01/12 01:06:02;;;;;;;7.43;1.80;;;25.50;99.90;;;;;;5065266;28;20609;-87
2023/01/12 01:08:34;;;;;;;4.55;1.52;;;25.50;99.90;;;;;;5066476;28;20189;-88
2023/01/12 01:11:06;;;;;;;5.40;1.77;;;25.50;99.90;;;;;;5069355;28;20642;-86
2023/01/12 01:13:39;;;;;;;5.13;1.70;;;25.40;99.90;;;;;;5058993;28;20240;-87
2023/01/12 01:16:14;;;;;;;5.43;1.70;;;25.40;99.90;;;;;;5058788;28;20216;-88
2023/01/12 01:18:46;;;;;;;5.60;1.70;;;25.40;99.90;;;;;;5063550;28;20561;-88
2023/01/12 01:21:17;;;;;;;6.85;2.00;;;25.50;99.90;;;;;;5064069;28;20316;-88
2023/01/12 01:23:48;;;;;;;3.53;1.48;;;25.50;99.90;;;;;;5061573;28;21575;-89
2023/01/12 01:26:22;;;;;;;8.48;1.60;;;25.60;99.90;;;;;;5065497;28;20248;-86
2023/01/12 01:28:54;;;;;;;5.72;1.33;;;25.60;99.90;;;;;;5064082;28;20275;-89
2023/01/12 01:31:28;;;;;;;5.65;1.80;;;25.70;99.90;;;;;;5061529;28;20259;-88
2023/01/12 01:33:59;;;;;;;5.63;1.45;;;25.70;99.90;;;;;;5061331;28;20227;-87
2023/01/12 01:36:30;;;;;;;4.78;1.50;;;25.70;99.90;;;;;;5062514;28;20218;-86
2023/01/12 01:39:01;;;;;;;4.40;1.33;;;25.80;99.90;;;;;;5059678;28;20682;-86
2023/01/12 01:41:33;;;;;;;5.25;1.50;;;25.80;99.90;;;;;;5059090;28;20260;-88
2023/01/12 01:44:05;;;;;;;5.57;1.55;;;25.90;99.90;;;;;;5061952;28;20327;-86
2023/01/12 01:46:47;;;;;;;3.78;1.40;;;26.00;99.90;;;;;;5068381;28;20220;-89
2023/01/12 01:49:26;;;;;;;5.60;1.50;;;26.20;99.90;;;;;;5070416;28;20201;-86
2023/01/12 01:52:01;;;;;;;3.33;1.23;;;26.30;99.90;;;;;;5072634;28;20238;-87
2023/01/12 01:54:35;;;;;;;6.20;1.60;;;26.30;99.90;;;;;;5071984;28;20195;-88
2023/01/12 01:57:07;;;;;;;4.03;1.55;;;26.30;99.90;;;;;;5069964;28;20271;-88
2023/01/12 01:59:41;;;;;;;5.25;1.45;;;26.30;99.90;;;;;;5076662;28;20221;-88
2023/01/12 02:02:14;;;;;;;5.57;1.58;;;26.30;99.90;;;;;;5064475;28;20605;-86
2023/01/12 02:04:45;;;;;;;5.88;1.42;;;26.40;99.90;;;;;;5065262;28;20221;-89
2023/01/12 02:07:16;;;;;;;4.13;1.70;;;26.40;99.90;;;;;;5059943;28;20226;-87
2023/01/12 02:09:47;;;;;;;5.28;1.70;;;26.30;99.90;;;;;;5060610;28;20207;-88
2023/01/12 02:18:09;;;;;;;5.82;2.20;;;26.60;99.90;;;;;;5056267;28;20347;-90
2023/01/12 02:21:03;;;;;;;6.03;2.42;;;26.70;99.90;;;;;;5060655;28;20224;-90
2023/01/12 02:24:18;;;;;;;4.90;1.70;;;26.80;99.90;;;;;;5058622;28;20228;-89
2023/01/12 02:27:28;;;;;;;7.53;1.83;;;26.90;99.90;;;;;;5064512;28;20696;-88
2023/01/12 02:30:33;;;;;;;4.70;1.50;;;26.90;99.90;;;;;;4995119;28;20238;-87
2023/01/12 02:33:19;;;;;;;3.10;1.55;;;26.80;99.90;;;;;;5049657;28;20263;-86
2023/01/12 02:36:00;;;;;;;4.75;1.80;;;26.90;99.90;;;;;;5060344;28;20280;-87
2023/01/12 02:38:38;;;;;;;5.95;2.10;;;27.00;99.90;;;;;;5061338;28;20300;-87
2023/01/12 02:42:39;;;;;;;2.85;1.55;;;26.90;99.90;;;;;;5063390;28;20208;-88
2023/01/12 02:44:23;;;;;;;6.38;1.83;;;26.90;99.90;;;;;;5057835;28;20242;-87
2023/01/12 02:46:55;;;;;;;3.30;1.65;;;26.90;99.90;;;;;;5060766;28;20200;-87
2023/01/12 02:49:33;;;;;;;5.97;2.58;;;26.90;99.90;;;;;;5061252;28;20581;-87
2023/01/12 02:52:12;;;;;;;3.95;2.35;;;27.00;99.90;;;;;;5060653;28;20212;-88
2023/01/12 02:54:48;;;;;;;6.05;2.85;;;27.20;99.90;;;;;;5064957;28;20210;-88
2023/01/12 02:57:21;;;;;;;5.20;1.90;;;27.20;99.90;;;;;;5056945;28;20247;-88
2023/01/12 02:59:55;;;;;;;3.03;1.50;;;27.30;99.90;;;;;;5058616;28;20192;-87
2023/01/12 03:02:28;;;;;;;5.43;1.73;;;27.30;99.90;;;;;;5074195;28;20211;-86
2023/01/12 03:05:03;;;;;;;4.05;1.45;;;27.40;99.90;;;;;;5066920;28;20228;-87
2023/01/12 03:07:53;;;;;;;6.25;1.63;;;27.50;99.90;;;;;;5058954;28;20262;-88
2023/01/12 03:10:52;;;;;;;7.70;1.58;;;27.30;99.90;;;;;;5059329;28;20286;-87
2023/01/12 03:13:24;;;;;;;4.57;1.40;;;27.30;99.90;;;;;;5061933;28;20206;-89
2023/01/12 03:15:58;;;;;;;6.03;1.50;;;27.30;99.90;;;;;;5058592;28;20220;-88
2023/01/12 03:18:34;;;;;;;3.47;1.42;;;27.40;99.90;;;;;;5074289;22;20236;-89
2023/01/12 03:21:14;;;;;;;2.88;1.20;;;27.30;99.90;;;;;;5074495;28;20254;-88
2023/01/12 03:23:50;;;;;;;2.95;1.20;;;27.30;99.90;;;;;;5057039;28;20322;-88
2023/01/12 03:26:26;;;;;;;3.58;1.40;;;27.30;99.90;;;;;;5078577;28;20244;-86
2023/01/12 03:29:04;;;;;;;3.80;1.40;;;27.40;99.90;;;;;;5076071;28;20199;-86
2023/01/12 03:31:35;;;;;;;3.75;1.40;;;27.40;99.90;;;;;;5073271;28;20203;-88
2023/01/12 03:34:09;;;;;;;7.32;1.75;;;27.50;99.90;;;;;;5076730;28;20298;-86
2023/01/12 03:36:50;;;;;;;5.38;1.60;;;27.50;99.90;;;;;;5078748;28;20250;-87
2023/01/12 03:39:30;;;;;;;6.93;1.50;;;27.40;99.90;;;;;;5079030;28;20183;-86
2023/01/12 03:42:09;;;;;;;4.78;1.33;;;27.50;99.90;;;;;;5078547;28;20253;-85
2023/01/12 03:44:47;;;;;;;7.43;1.83;;;27.50;99.90;;;;;;5081006;28;20552;-85
2023/01/12 03:47:24;;;;;;;6.43;1.67;;;27.50;99.90;;;;;;5073481;28;20195;-86
2023/01/12 03:49:58;;;;;;;3.85;1.20;;;27.50;99.90;;;;;;5076516;28;20222;-86
2023/01/12 03:52:34;;;;;;;3.78;1.40;;;27.50;99.90;;;;;;5076142;28;20283;-87
2023/01/12 03:55:09;;;;;;;4.43;1.30;;;27.60;99.90;;;;;;5086550;28;20206;-88
2023/01/12 03:57:41;;;;;;;5.20;1.50;;;27.60;99.90;;;;;;5086137;28;20191;-87
2023/01/12 04:00:15;;;;;;;3.83;1.23;;;27.60;99.90;;;;;;5078141;28;20206;-84
2023/01/12 04:02:48;;;;;;;4.85;1.38;;;27.60;99.90;;;;;;5084554;28;20206;-85
2023/01/12 04:05:19;;;;;;;4.50;1.38;;;27.60;99.90;;;;;;5093261;28;20283;-85
2023/01/12 04:07:54;;;;;;;4.63;1.40;;;27.70;99.90;;;;;;5091150;28;20258;-84
2023/01/12 04:10:28;;;;;;;2.78;1.30;;;27.60;99.90;;;;;;5081846;28;20698;-84
2023/01/12 04:12:59;;;;;;;9.15;1.13;;;27.70;99.90;;;;;;5079402;28;20609;-85
2023/01/12 04:15:36;;;;;;;6.38;1.38;;;27.80;99.90;;;;;;5081744;28;20206;-86
2023/01/12 04:18:07;;;;;;;4.55;1.48;;;27.70;99.90;;;;;;5081639;28;20224;-85
2023/01/12 04:20:39;;;;;;;3.63;1.27;;;27.70;99.90;;;;;;5077152;28;20195;-85
2023/01/12 04:23:12;;;;;;;4.28;1.40;;;27.70;99.90;;;;;;5077556;28;20196;-85
2023/01/12 04:25:42;;;;;;;4.63;1.33;;;27.70;99.90;;;;;;5078697;28;20770;-86
2023/01/12 04:28:15;;;;;;;3.78;1.27;;;27.70;99.90;;;;;;5080304;28;20242;-85
2023/01/12 04:30:46;;;;;;;6.60;1.38;;;27.70;99.90;;;;;;5079070;28;20192;-85
2023/01/12 04:33:20;;;;;;;4.60;1.52;;;27.70;99.90;;;;;;5085089;28;20183;-86
2023/01/12 04:35:54;;;;;;;6.30;1.40;;;27.80;99.90;;;;;;5085431;28;20304;-86
2023/01/12 04:38:26;;;;;;;3.85;1.13;;;27.80;99.90;;;;;;5085724;28;20220;-85
2023/01/12 04:40:59;;;;;;;3.22;1.40;;;27.90;99.90;;;;;;5081652;28;20191;-85
2023/01/12 04:43:30;;;;;;;4.88;1.40;;;27.90;99.90;;;;;;5083447;28;20218;-85
2023/01/12 04:46:05;;;;;;;6.93;1.60;;;27.80;99.90;;;;;;5082824;28;20259;-87
2023/01/12 04:48:42;;;;;;;5.88;1.52;;;27.80;99.90;;;;;;5078508;28;20282;-85
2023/01/12 04:51:13;;;;;;;5.15;1.50;;;28.00;99.90;;;;;;5081243;28;20203;-83
2023/01/12 04:53:47;;;;;;;3.80;1.33;;;28.00;99.90;;;;;;5080585;28;20209;-83
2023/01/12 04:56:19;;;;;;;4.60;1.42;;;28.00;99.90;;;;;;5081799;28;20279;-86
2023/01/12 04:58:52;;;;;;;3.83;1.50;;;28.00;99.90;;;;;;5076067;28;20306;-85
2023/01/12 05:01:23;;;;;;;3.97;1.60;;;27.90;99.90;;;;;;5077378;28;20619;-85
2023/01/12 05:03:56;;;;;;;2.90;1.38;;;28.10;99.90;;;;;;5077832;28;20211;-85
2023/01/12 05:06:27;;;;;;;7.38;1.73;;;28.20;99.90;;;;;;5078670;28;20195;-85
2023/01/12 05:11:47;;;;;;;6.90;1.83;;;28.30;99.90;;;;;;5082356;28;20609;-83
2023/01/12 05:14:18;;;;;;;6.90;1.35;;;28.40;99.90;;;;;;5081333;28;20717;-84
2023/01/12 05:16:49;;;;;;;4.75;1.30;;;28.30;99.90;;;;;;5077777;28;20250;-85
2023/01/12 05:19:21;;;;;;;3.88;1.20;;;28.50;99.90;;;;;;5080519;28;20223;-86
2023/01/12 05:21:57;;;;;;;3.72;1.40;;;28.70;99.90;;;;;;5084369;28;20208;-86
2023/01/12 05:24:30;;;;;;;4.20;1.30;;;28.50;99.90;;;;;;5081592;28;20871;-85
2023/01/12 05:27:01;;;;;;;4.90;1.70;;;28.60;99.90;;;;;;5079364;28;20243;-86
2023/01/12 05:29:32;;;;;;;4.03;1.30;;;28.70;99.90;;;;;;5082134;28;20616;-87
2023/01/12 05:32:03;;;;;;;3.65;1.50;;;28.90;99.90;;;;;;5075523;28;20183;-86
2023/01/12 05:34:35;;;;;;;6.43;1.50;;;28.80;99.90;;;;;;5078294;28;20256;-87
2023/01/12 05:37:07;;;;;;;6.05;1.20;;;28.80;99.90;;;;;;5076490;28;20192;-86
2023/01/12 05:39:41;;;;;;;5.13;1.50;;;28.90;99.90;;;;;;5079392;28;20233;-85
2023/01/12 05:44:59;;;;;;;6.15;1.50;;;29.10;99.90;;;;;;5079256;28;20832;-85
2023/01/12 05:47:30;;;;;;;5.55;1.50;;;29.20;99.90;;;;;;5078346;28;20191;-85
2023/01/12 05:50:01;;;;;;;3.97;1.30;;;29.40;99.90;;;;;;5075860;28;20603;-84
2023/01/12 05:52:32;;;;;;;4.25;1.30;;;29.40;99.90;;;;;;5077020;28;20195;-87
2023/01/12 05:55:05;;;;;;;6.68;1.30;;;29.30;99.90;;;;;;5078264;28;20274;-86
2023/01/12 05:57:36;;;;;;;6.10;1.52;;;29.40;99.90;;;;;;5085557;28;20198;-86
2023/01/12 06:00:09;;;;;;;4.32;1.27;;;29.40;99.90;;;;;;5074908;28;20223;-87
2023/01/12 06:02:41;;;;;;;4.15;1.17;;;29.50;99.90;;;;;;5077623;28;20698;-85
2023/01/12 06:05:12;;;;;;;4.60;1.23;;;30.00;99.90;;;;;;5077046;28;20815;-85
2023/01/12 06:07:46;;;;;;;3.40;0.85;;;30.10;99.90;;;;;;5081095;28;20204;-87
2023/01/12 06:10:18;;;;;;;2.40;0.98;;;30.30;99.90;;;;;;5079681;28;20709;-86
2023/01/12 06:15:39;;;;;;;4.15;1.17;;;30.70;99.90;;;;;;5079873;28;20292;-85
2023/01/12 06:18:10;;;;;;;5.97;1.33;;;30.70;99.90;;;;;;5079744;28;20234;-87
2023/01/12 06:20:41;;;;;;;4.43;1.25;;;30.80;99.90;;;;;;5075291;28;20195;-84
2023/01/12 06:23:12;;;;;;;2.15;0.82;;;30.90;99.90;;;;;;5078453;28;20207;-85
2023/01/12 06:25:46;;;;;;;3.35;1.00;;;31.20;99.90;;;;;;5078273;28;20230;-84
2023/01/12 06:28:22;;;;;;;2.45;0.85;;;30.90;99.90;;;;;;5078650;28;20200;-85
2023/01/12 06:30:59;;;;;;;3.17;1.00;;;30.80;99.90;;;;;;5075327;28;20209;-85
2023/01/12 06:33:30;;;;;;;3.78;1.25;;;30.80;99.90;;;;;;5083078;28;20717;-84
2023/01/12 06:36:02;;;;;;;6.18;1.02;;;30.70;99.90;;;;;;5078981;28;20214;-84
2023/01/12 06:38:35;;;;;;;4.40;1.10;;;30.70;99.90;;;;;;5075825;28;20196;-85
2023/01/12 06:42:27;;;;;;;1.88;0.80;;;30.70;99.90;;;;;;5075476;28;20463;-86
2023/01/12 06:44:03;;;;;;;6.35;1.02;;;31.10;99.90;;;;;;5079099;28;20191;-85
2023/01/12 06:46:38;;;;;;;4.00;0.90;;;31.60;99.90;;;;;;5075391;28;20231;-85
2023/01/12 06:49:10;;;;;;;3.47;0.88;;;31.60;99.90;;;;;;5077603;28;20330;-85
2023/01/12 06:51:41;;;;;;;2.65;1.02;;;31.80;99.90;;;;;;5076233;28;20215;-86
2023/01/12 06:54:12;;;;;;;4.03;0.88;;;31.80;99.90;;;;;;5079888;28;20254;-85
2023/01/12 06:56:45;;;;;;;4.05;1.00;;;32.10;98.70;;;;;;5078587;28;20254;-85
2023/01/12 06:59:18;;;;;;;2.85;0.73;;;32.30;97.60;;;;;;5081962;28;20187;-85
2023/01/12 07:01:51;;;;;;;2.67;0.80;;;32.60;95.40;;;;;;5079686;28;20188;-85
2023/01/12 07:04:23;;;;;;;2.58;0.93;;;32.80;93.20;;;;;;5075249;28;20317;-85
2023/01/12 07:06:57;;;;;;;4.15;0.90;;;33.00;91.70;;;;;;5074517;28;20675;-85
2023/01/12 07:09:28;;;;;;;2.75;0.88;;;33.10;92.00;;;;;;5075814;28;20208;-85
2023/01/12 07:12:00;;;;;;;4.55;0.90;;;33.10;91.40;;;;;;5081299;28;20560;-84
2023/01/12 07:14:31;;;;;;;2.92;1.00;;;33.20;90.80;;;;;;5087381;28;20258;-84
2023/01/12 07:17:03;;;;;;;2.35;0.90;;;33.10;90.60;;;;;;5092998;28;20215;-84
2023/01/12 07:19:34;;;;;;;2.80;0.90;;;32.90;90.30;;;;;;5077198;28;20581;-85
2023/01/12 07:22:05;;;;;;;2.13;0.93;;;32.90;90.40;;;;;;5079783;28;20196;-85
2023/01/12 07:24:36;;;;;;;3.38;1.00;;;32.80;91.20;;;;;;5076971;28;20722;-85
2023/01/12 07:27:09;;;;;;;3.22;0.90;;;32.80;90.80;;;;;;5079029;28;20199;-84
2023/01/12 07:29:41;;;;;;;2.33;0.80;;;33.00;90.00;;;;;;5077251;28;20673;-85
2023/01/12 07:32:12;;;;;;;3.83;0.88;;;33.30;89.10;;;;;;5077562;28;20198;-85
2023/01/12 07:34:43;;;;;;;5.35;1.08;;;33.10;87.50;;;;;;5077380;28;20283;-85
2023/01/12 07:37:15;;;;;;;3.20;0.90;;;32.60;90.70;;;;;;5077504;28;20734;-84
2023/01/12 07:39:46;;;;;;;3.47;0.75;;;32.40;91.40;;;;;;5075135;28;20209;-84
2023/01/12 07:42:25;;;;;;;1.80;0.80;;;32.80;90.30;;;;;;5073561;28;20187;-86
2023/01/12 07:44:56;;;;;;;3.67;0.90;;;32.50;91.00;;;;;;5076519;28;20234;-83
2023/01/12 07:47:27;;;;;;;3.78;1.02;;;32.40;91.20;;;;;;5077108;28;20200;-85
2023/01/12 07:49:58;;;;;;;2.05;0.80;;;32.60;90.70;;;;;;5077812;28;20199;-82
2023/01/12 07:52:29;;;;;;;1.85;0.88;;;32.80;90.00;;;;;;5075642;28;20301;-84
2023/01/12 07:55:02;;;;;;;3.08;0.95;;;32.60;90.00;;;;;;5074189;28;20203;-83
2023/01/12 07:57:36;;;;;;;3.60;1.25;;;32.00;91.40;;;;;;5074449;28;20194;-85
2023/01/12 08:00:08;;;;;;;2.85;1.10;;;31.50;92.90;;;;;;5077550;28;20188;-85
2023/01/12 08:02:39;;;;;;;3.15;1.02;;;31.30;94.30;;;;;;5076035;28;20291;-85
2023/01/12 08:05:11;;;;;;;5.25;1.13;;;30.70;95.30;;;;;;5077712;28;20230;-85
2023/01/12 08:07:42;;;;;;;2.50;0.82;;;30.20;98.30;;;;;;5079588;28;20188;-85
2023/01/12 08:10:15;;;;;;;2.20;1.00;;;29.60;99.90;;;;;;5074032;28;20234;-85
2023/01/12 08:12:48;;;;;;;3.78;1.13;;;29.20;99.90;;;;;;5078377;28;20203;-84
2023/01/12 08:15:19;;;;;;;4.50;1.20;;;28.70;99.90;;;;;;5082527;28;20596;-85
2023/01/12 08:17:54;;;;;;;5.07;1.48;;;28.40;99.90;;;;;;5091884;28;20226;-84
2023/01/12 08:20:29;;;;;;;6.63;1.08;;;28.00;99.90;;;;;;5083394;28;20218;-83
2023/01/12 08:23:04;;;;;;;2.47;1.00;;;27.60;99.90;;;;;;5077559;28;20222;-83
2023/01/12 08:25:37;;;;;;;4.22;1.23;;;27.40;99.90;;;;;;5077454;28;20219;-84
2023/01/12 08:28:14;;;;;;;2.85;1.10;;;27.20;99.90;;;;;;5082008;28;20191;-85
2023/01/12 08:30:47;;;;;;;3.08;1.00;;;26.90;99.90;;;;;;5080953;28;20762;-84
2023/01/12 08:33:18;;;;;;;5.32;1.27;;;26.70;99.90;;;;;;5078119;28;20222;-85
2023/01/12 08:35:49;;;;;;;7.50;1.33;;;26.60;99.90;;;;;;5081742;28;20306;-85
2023/01/12 08:38:21;;;;;;;5.18;1.40;;;26.60;99.90;;;;;;5078994;28;20203;-85
2023/01/12 08:46:35;;;;;;;3.42;1.20;;;26.20;99.90;;;;;;5071770;28;20219;-84
2023/01/12 08:49:10;;;;;;;3.97;0.90;;;26.10;99.90;;;;;;5079713;28;20291;-85
2023/01/12 08:51:41;;;;;;;2.90;1.17;;;26.10;99.90;;;;;;5078906;28;20210;-84
2023/01/12 08:54:13;;;;;;;3.53;1.00;;;26.00;99.90;;;;;;5081561;28;20192;-84
2023/01/12 08:56:44;;;;;;;3.75;1.40;;;25.80;99.90;;;;;;5080964;28;20666;-84
2023/01/12 08:59:19;;;;;;;4.32;1.20;;;25.70;99.90;;;;;;5078810;28;20286;-88
2023/01/12 09:01:50;;;;;;;4.78;1.40;;;25.60;99.90;;;;;;5079923;28;20206;-86
2023/01/12 09:04:21;;;;;;;4.43;1.17;;;25.60;99.90;;;;;;5078154;28;20203;-85
2023/01/12 09:06:52;;;;;;;4.38;1.15;;;25.60;99.90;;;;;;5080544;28;20299;-86
2023/01/12 09:09:23;;;;;;;4.50;1.35;;;25.50;99.90;;;;;;5077182;28;21058;-87
2023/01/12 09:11:55;;;;;;;3.17;1.17;;;25.50;99.90;;;;;;5077896;28;20195;-87
2023/01/12 09:14:28;;;;;;;2.70;1.08;;;25.50;99.90;;;;;;5088565;28;20753;-86
2023/01/12 09:16:59;;;;;;;4.60;1.13;;;25.50;99.90;;;;;;5088990;28;20221;-87
2023/01/12 09:19:31;;;;;;;4.15;1.08;;;25.50;99.90;;;;;;5101330;28;20230;-87
2023/01/12 09:22:03;;;;;;;3.00;0.90;;;25.50;99.90;;;;;;5097893;28;20207;-86
2023/01/12 09:24:36;;;;;;;3.22;1.10;;;25.30;99.90;;;;;;5094969;28;20259;-87
2023/01/12 09:27:08;;;;;;;5.93;1.13;;;25.30;99.90;;;;;;5087185;28;20295;-86
2023/01/12 09:29:41;;;;;;;6.20;1.23;;;25.30;99.90;;;;;;5091992;28;20200;-88
2023/01/12 09:32:12;;;;;;;5.07;1.45;;;25.30;99.90;;;;;;5083558;28;20200;-87
2023/01/12 09:34:43;;;;;;;4.15;1.20;;;25.20;99.90;;;;;;5094313;28;20649;-87
2023/01/12 09:37:14;;;;;;;3.72;1.00;;;25.20;99.90;;;;;;5099442;28;20705;-87
2023/01/12 09:39:45;;;;;;;3.20;0.70;;;25.10;99.90;;;;;;5089249;28;20218;-87
2023/01/12 09:48:39;;;;;;;4.38;1.20;;;25.10;99.90;;;;;;5093340;28;20673;-90
2023/01/12 09:52:04;;;;;;;;;;;;;;;;;;;;;
2023/01/12 09:54:37;;;;;;;4.32;1.27;;;25.10;99.90;;;;;;5109691;28;20233;-90
2023/01/12 09:57:25;;;;;;;3.90;1.30;;;25.10;99.90;;;;;;5103985;28;20209;-88
2023/01/12 10:00:06;;;;;;;5.53;1.10;;;25.00;99.90;;;;;;5085774;28;20188;-90
2023/01/12 10:02:46;;;;;;;3.90;1.38;;;25.00;99.90;;;;;;5090958;28;20211;-89
2023/01/12 10:05:36;;;;;;;4.13;1.10;;;25.00;99.90;;;;;;5088215;28;20194;-90
2023/01/12 10:08:12;;;;;;;5.63;1.38;;;25.00;99.90;;;;;;5087004;28;20220;-88
2023/01/12 10:10:49;;;;;;;4.93;1.05;;;25.00;99.90;;;;;;5070912;28;20221;-87
2023/01/12 10:13:31;;;;;;;6.35;1.48;;;24.90;99.90;;;;;;5086694;28;20203;-88
2023/01/12 10:19:08;;;;;;;3.33;1.23;;;24.90;99.90;;;;;;5078506;28;20321;-88
2023/01/12 10:21:46;;;;;;;4.30;1.30;;;24.90;99.90;;;;;;5085509;28;20267;-85
2023/01/12 10:24:20;;;;;;;4.57;1.30;;;24.90;99.90;;;;;;5088953;28;20275;-88
2023/01/12 10:26:59;;;;;;;4.03;1.17;;;24.90;99.90;;;;;;5084480;28;20243;-87
2023/01/12 10:29:34;;;;;;;5.15;1.00;;;24.80;99.90;;;;;;5089655;28;20203;-88
2023/01/12 10:32:13;;;;;;;4.43;1.10;;;24.80;99.90;;;;;;5082079;28;20302;-89
2023/01/12 10:34:59;;;;;;;3.40;0.93;;;24.80;99.90;;;;;;5088559;28;20306;-88
2023/01/12 10:37:35;;;;;;;4.78;1.25;;;24.80;99.90;;;;;;5092263;28;20237;-89
2023/01/12 10:47:24;;;;;;;5.95;1.42;;;24.70;99.90;;;;;;5047124;28;20222;-87
2023/01/12 10:53:45;;;;;;;7.82;1.33;;;24.70;99.90;;;;;;5091261;28;20200;-88
2023/01/12 10:56:52;;;;;;;5.43;1.30;;;24.70;99.90;;;;;;5103472;28;20269;-89
2023/01/12 10:59:36;;;;;;;3.92;1.10;;;24.60;99.90;;;;;;5099502;28;20229;-88
2023/01/12 11:02:25;;;;;;;5.70;1.30;;;24.60;99.90;;;;;;5101219;28;20207;-88
2023/01/12 11:05:03;;;;;;;2.58;1.17;;;24.60;99.90;;;;;;5094359;28;20195;-91
2023/01/12 11:08:00;;;;;;;4.20;1.50;;;24.50;99.90;;;;;;5098395;28;20219;-91
2023/01/12 11:13:36;;;;;;;5.47;1.27;;;24.50;99.90;;;;;;5102170;28;20180;-91
2023/01/12 11:19:20;;;;;;;3.85;1.23;;;24.50;99.90;;;;;;5092405;28;20200;-89
2023/01/12 11:22:02;;;;;;;4.63;1.30;;;24.50;99.90;;;;;;5101931;28;20192;-89
2023/01/12 11:24:51;;;;;;;5.82;1.45;;;24.50;99.90;;;;;;5097773;28;20206;-91
2023/01/12 11:27:47;;;;;;;5.13;1.10;;;24.50;99.90;;;;;;5083761;28;20222;-91
2023/01/12 11:30:30;;;;;;;4.30;1.30;;;24.40;99.90;;;;;;5099510;28;20188;-92
2023/01/12 11:33:24;;;;;;;2.33;1.00;;;24.40;99.90;;;;;;5094382;28;20186;-90
2023/01/12 11:36:00;;;;;;;3.40;1.20;;;24.40;99.90;;;;;;5099181;28;20229;-91
2023/01/12 11:41:39;;;;;;;9.20;1.58;;;24.40;99.90;;;;;;5094334;28;20266;-91
2023/01/12 11:44:46;;;;;;;5.22;1.35;;;24.40;99.90;;;;;;5103751;28;20228;-90
2023/01/12 11:47:25;;;;;;;3.65;1.17;;;24.40;99.90;;;;;;5097594;28;20249;-90
2023/01/12 11:50:08;;;;;;;6.80;1.70;;;24.40;99.90;;;;;;5099595;28;20282;-88
2023/01/12 11:52:41;;;;;;;3.25;1.13;;;24.40;99.90;;;;;;5089029;28;20258;-87
2023/01/12 11:55:19;;;;;;;6.05;1.40;;;24.30;99.90;;;;;;5090681;28;20753;-89
2023/01/12 11:58:02;;;;;;;4.32;1.23;;;24.30;99.90;;;;;;5084547;28;20563;-90
2023/01/12 12:00:50;;;;;;;4.90;1.25;;;24.30;99.90;;;;;;5082526;28;20196;-89
2023/01/12 12:03:46;;;;;;;4.05;1.30;;;24.30;99.90;;;;;;5087285;28;20199;-89
2023/01/12 12:06:32;;;;;;;4.30;1.30;;;24.30;99.90;;;;;;5087311;28;20211;-89
2023/01/12 12:09:15;;;;;;;3.88;1.40;;;24.30;99.90;;;;;;5086290;28;20224;-89
2023/01/12 12:11:55;;;;;;;4.38;1.23;;;24.30;99.90;;;;;;5091583;28;20187;-89
2023/01/12 12:14:43;;;;;;;4.18;1.33;;;24.30;99.90;;;;;;5100170;28;20195;-89
2023/01/12 12:17:23;;;;;;;3.08;1.05;;;24.20;99.90;;;;;;5087460;28;20201;-88
2023/01/12 12:20:05;;;;;;;5.00;1.35;;;24.20;99.90;;;;;;5085565;28;20291;-90
2023/01/12 12:22:51;;;;;;;5.78;1.63;;;24.20;99.90;;;;;;5088241;28;20225;-90
2023/01/12 12:25:34;;;;;;;6.68;1.40;;;24.20;99.90;;;;;;5090850;28;20281;-91
2023/01/12 12:28:22;;;;;;;4.20;1.20;;;24.10;99.90;;;;;;5085648;28;20631;-92
2023/01/12 12:31:40;;;;;;;3.63;1.20;;;24.10;99.90;;;;;;5087014;28;20231;-88
2023/01/12 12:34:45;;;;;;;2.70;1.05;;;24.20;99.90;;;;;;5089049;28;20266;-88
2023/01/12 12:37:29;;;;;;;5.63;1.30;;;24.20;99.90;;;;;;5064548;28;20283;-88
2023/01/12 12:40:05;;;;;;;3.97;1.08;;;24.10;99.90;;;;;;5087057;28;20215;-88
2023/01/12 12:45:56;;;;;;;3.10;1.10;;;24.10;99.90;;;;;;5048158;28;20206;-88
2023/01/12 12:48:40;;;;;;;3.67;1.30;;;24.10;99.90;;;;;;5086000;28;20195;-89
2023/01/12 12:51:14;;;;;;;3.05;1.30;;;24.10;99.90;;;;;;5083395;28;20252;-90
2023/01/12 12:53:49;;;;;;;4.03;1.15;;;24.10;99.90;;;;;;5087739;28;20571;-89
2023/01/12 12:56:23;;;;;;;4.20;1.40;;;24.10;99.90;;;;;;5089014;28;20191;-89
2023/01/12 12:58:55;;;;;;;5.40;1.40;;;24.10;99.90;;;;;;5087810;28;20259;-89
2023/01/12 13:02:00;;;;;;;5.63;1.15;;;24.10;99.90;;;;;;5091244;28;20246;-88
2023/01/12 13:05:03;;;;;;;3.85;1.10;;;24.00;99.90;;;;;;5082174;28;20641;-90
2023/01/12 13:07:39;;;;;;;3.92;1.20;;;24.00;99.90;;;;;;5083880;28;20330;-91
2023/01/12 13:10:30;;;;;;;5.10;1.27;;;24.00;99.90;;;;;;5083711;28;20192;-90
2023/01/12 13:13:05;;;;;;;2.60;1.25;;;24.00;99.90;;;;;;5094601;28;20294;-88
2023/01/12 13:15:37;;;;;;;6.07;1.33;;;24.00;99.90;;;;;;5095330;28;20703;-89
2023/01/12 13:18:30;;;;;;;3.97;1.30;;;24.00;99.90;;;;;;5086857;28;20193;-91
2023/01/12 13:21:01;;;;;;;3.60;1.23;;;24.00;99.90;;;;;;5088214;28;20218;-89
2023/01/12 13:23:56;;;;;;;4.70;1.20;;;24.00;99.90;;;;;;5083337;28;20258;-90
2023/01/12 13:26:50;;;;;;;4.22;1.20;;;24.00;99.90;;;;;;5081866;28;20215;-90
2023/01/12 13:29:47;;;;;;;5.40;1.42;;;24.00;99.90;;;;;;5080245;28;20262;-90
2023/01/12 13:32:39;;;;;;;4.05;1.17;;;23.90;99.90;;;;;;5081937;28;20195;-87
2023/01/12 13:35:27;;;;;;;2.45;1.05;;;23.90;99.90;;;;;;5078448;28;20210;-88
2023/01/12 13:38:06;;;;;;;3.90;1.20;;;23.90;99.90;;;;;;5083657;28;20199;-90
2023/01/12 13:40:41;;;;;;;4.57;1.23;;;23.90;99.90;;;;;;5079374;28;20231;-88
2023/01/12 13:43:20;;;;;;;3.70;1.38;;;23.90;99.90;;;;;;5078440;28;20230;-87
2023/01/12 13:45:56;;;;;;;4.00;1.10;;;23.90;99.90;;;;;;5084122;28;20274;-87
2023/01/12 13:48:27;;;;;;;4.25;1.40;;;23.90;99.90;;;;;;5084261;28;20715;-89
2023/01/12 13:51:00;;;;;;;4.43;1.27;;;23.90;99.90;;;;;;5080507;28;20282;-89
2023/01/12 13:53:33;;;;;;;4.07;1.35;;;23.90;99.90;;;;;;5078527;28;20203;-89
2023/01/12 13:56:06;;;;;;;5.53;1.27;;;23.90;99.90;;;;;;5085143;28;20263;-89
2023/01/12 13:58:43;;;;;;;5.15;1.38;;;23.90;99.90;;;;;;5082046;28;20195;-87
2023/01/12 14:01:20;;;;;;;4.47;1.15;;;23.90;99.90;;;;;;5075159;28;20215;-89
2023/01/12 14:04:16;;;;;;;5.15;1.60;;;23.90;99.90;;;;;;5079011;28;20201;-87
2023/01/12 14:06:57;;;;;;;3.33;1.30;;;23.90;99.90;;;;;;5064702;28;20609;-87
2023/01/12 14:09:37;;;;;;;4.88;1.15;;;23.90;99.90;;;;;;5080218;28;20655;-88
2023/01/12 14:12:35;;;;;;;4.82;1.30;;;23.90;99.90;;;;;;5084246;28;20188;-87
2023/01/12 14:18:23;;;;;;;3.67;1.23;;;23.90;99.90;;;;;;5081261;28;20203;-86
2023/01/12 14:20:55;;;;;;;3.03;0.98;;;23.90;99.90;;;;;;5075934;28;20274;-86
2023/01/12 14:23:30;;;;;;;3.50;1.00;;;23.90;99.90;;;;;;5080745;28;20188;-87
2023/01/12 14:26:17;;;;;;;2.40;1.10;;;23.90;99.90;;;;;;5072133;28;20993;-89
2023/01/12 14:28:49;;;;;;;4.65;1.20;;;23.90;99.90;;;;;;5079560;28;20196;-88
2023/01/12 14:31:29;;;;;;;4.18;1.20;;;23.80;99.90;;;;;;5081870;28;20191;-87
2023/01/12 14:34:01;;;;;;;3.00;1.20;;;23.80;99.90;;;;;;5063825;28;20253;-88
2023/01/12 14:36:36;;;;;;;3.78;1.23;;;23.80;99.90;;;;;;5083066;28;20318;-87